METAR Data
IDs: Format: Raw Decoded Include TAF

Data at: 0333 UTC 18 Jan 2022

KBWI 180254Z 28016G27KT 10SM FEW048 SCT200 01/M08 A2960 RMK AO2 PK WND 28030/0202 SLP026 T00061083 53035
KBWI 180154Z 28016G26KT 10SM BKN048 01/M08 A2957 RMK AO2 PK WND 28043/0104 SLP014 T00111083
KBWI 180054Z 28020G30KT 10SM BKN050 01/M08 A2953 RMK AO2 PK WND 29033/0014 SLP000 T00111083
KBWI 172354Z 28017G27KT 10SM BKN049 BKN140 OVC200 01/M08 A2950 RMK AO2 PK WND 29027/2354 SLP991 T00111078 10039 20006 53043
KBWI 172254Z 27013G24KT 10SM SCT045 BKN100 OVC200 01/M07 A2945 RMK AO2 PK WND 25031/2220 SLP975 T00111067
KBWI 172154Z 26017G29KT 10SM SCT045 BKN110 BKN250 01/M07 A2941 RMK AO2 PK WND 27033/2108 SLP960 T00111067
KBWI 172054Z 27023G32KT 10SM SCT047 BKN110 02/M07 A2937 RMK AO2 PK WND 26039/2026 SLP948 T00171067 53041
KBWI 171954Z 26019G36KT 10SM BKN047 OVC100 02/M07 A2933 RMK AO2 PK WND 25040/1923 SLP931 T00221067
KBWI 171854Z 25022G34KT 10SM BKN047 OVC060 03/M06 A2927 RMK AO2 PK WND 26042/1809 SLP913 T00281056
KBWI 171754Z 27020G37KT 10SM BKN046 BKN250 04/M04 A2925 RMK AO2 PK WND 26042/1736 SLP905 T00391044 10044 20011 51017
KBWI 171654Z COR 27021G35KT 10SM BKN045 BKN160 BKN250 04/M04 A2924 RMK AO2 PK WND 25035/1646 SLP901 T00391044
KBWI 171554Z 26015G27KT 10SM BKN041 03/M03 A2923 RMK AO2 PK WND 25034/1518 PRESRR SLP899 T00331033
KBWI 171454Z 25016G26KT 10SM SCT065 SCT250 03/M02 A2920 RMK AO2 PK WND 27026/1448 SLP888 60000 T00331017 52026
KBWI 171354Z 24013G21KT 10SM FEW038 BKN050 OVC060 02/M01 A2918 RMK AO2 PK WND 23029/1318 SNB30E44 SLP881 P0000 T00171006
KBWI 171254Z 23011G20KT 10SM FEW015 BKN028 OVC048 02/M01 A2915 RMK AO2 SNE31 SLP871 P0000 T00171006
KBWI 171233Z 24011G20KT 9SM FEW015 BKN028 OVC048 01/M01 A2913 RMK AO2 SNE31 P0000 T00111006
KBWI 171154Z 22011G20KT 2 1/2SM -SN BR BKN010 OVC015 01/M01 A2912 RMK AO2 SLP863 P0002 60004 70120 T00111006 10072 20011 53007
KBWI 171124Z 21010G18KT 2 1/2SM -SN BR BKN010 OVC013 01/M01 A2911 RMK AO2 P0001 T00111006
KBWI 171101Z 20011G22KT 1 1/2SM -SN BR OVC013 02/M01 A2910 RMK AO2 P0001 T00171006
KBWI 171054Z 21012G26KT 2SM -SN BR OVC013 02/M01 A2910 RMK AO2 PK WND 20026/1051 SNB51 SLP855 P0000 T00171006
KBWI 170954Z 20010G21KT 10SM OVC014 02/M01 A2909 RMK AO2 SLP850 T00221006
KBWI 170854Z 21010G19KT 170V230 10SM OVC014 03/01 A2910 RMK AO2 SLP855 60002 T00280006 56010
KBWI 170754Z 20008G19KT 10SM BKN012 BKN018 OVC200 04/03 A2910 RMK AO2 PK WND 20026/0703 SLP855 T00440028
KBWI 170737Z 20010G17KT 9SM BKN012 BKN018 05/03 A2910 RMK AO2 PK WND 20026/0703 T00500028
KBWI 170713Z 20008G22KT 9SM SCT008 BKN015 BKN200 06/04 A2910 RMK AO2 PK WND 20026/0703 T00610044
KBWI 170654Z 18007KT 8SM BKN007 OVC016 07/06 A2909 RMK AO2 RAB02E19B35E44 SLP852 P0002 T00670056
KBWI 170646Z VRB03KT 6SM BR BKN007 OVC011 06/06 A2909 RMK AO2 RAB02E19B35E44 VIS SE-SW 1 1/2 P0002 T00610056
KBWI 170604Z 05006KT 4SM -RA BR SCT005 BKN011 OVC029 04/03 A2912 RMK AO2 RAB02 VIS SE-SW 1 1/2 P0000 T00440033
KBWI 170554Z 10003KT 6SM BR BKN005 OVC010 05/04 A2913 RMK AO2 PK WND 07027/0508 RAE07 SLP866 P0001 60092 I6012 T00500044 10056 21006 56102
KBWI 170528Z 07012KT 8SM BKN006 OVC012 05/04 A2914 RMK AO2 PK WND 07027/0508 RAE07 P0001 T00500039
KBWI 170502Z 04017G27KT 4SM -RA BR FEW012 SCT020 BKN034 OVC130 06/04 A2918 RMK AO2 P0001 T00560039
KBWI 170454Z 06018G34KT 2 1/2SM -RA BR FEW022 BKN034 OVC120 04/03 A2918 RMK AO2 PK WND 04038/0400 WSHFT 0435 SLP883 P0038 T00390028 400561094
KBWI 170451Z 05019G34KT 2 1/2SM RA BR FEW016 OVC036 04/03 A2915 RMK AO2 PK WND 04038/0400 WSHFT 0435 P0038
KBWI 170446Z 04026G33KT 1 3/4SM RA BR SCT006 BKN014 OVC031 04/02 A2920 RMK AO2 PK WND 04038/0400 WSHFT 0407 P0036 T00440022
KBWI 170438Z COR 07012G18KT 3SM RA BR FEW006 BKN022 OVC031 05/03 A2932 RMK AO2 PK WND 04038/0400 WSHFT 0407 P0032 T00500028
KBWI 170431Z 13007G16KT 1 1/2SM RA BR SCT006 BKN014 OVC022 04/03 A2934 RMK AO2 PK WND 04038/0400 WSHFT 0407 P0030 T00440033
KBWI 170421Z 21010G26KT 3/4SM R10/6000VP6000FT +RA BR BKN006 OVC014 04/04 A2935 RMK AO2 PK WND 04038/0400 WSHFT 0407 PRESRR P0015 T00440039
KBWI 170419Z 21013G26KT 2SM R10/6000VP6000FT RA BR OVC006 04/04 A2935 RMK AO2 PK WND 04038/0400 WSHFT 0405 PRESRR P0013 T00440039
KBWI 170354Z 06025G39KT 4SM RA BR OVC006 04/03 A2930 RMK AO2 PK WND 07039/0352 PRESFR SLP924 P0017 T00390028
KBWI 170254Z 06022G35KT 4SM RA BR OVC005 03/02 A2943 RMK AO2 PK WND 06035/0212 PRESFR SLP968 P0018 60036 I3012 T00280017 58117
KBWI 170154Z 06021G31KT 4SM -RA BR OVC006 02/01 A2956 RMK AO2 PK WND 06031/0138 PRESFR SLP011 P0012 T00170006
KBWI 170054Z 06018G28KT 5SM -RA BR OVC007 01/M01 A2969 RMK AO2 PK WND 06034/0009 RAB54FZRAE54 PRESFR SLP055 P0006 I1012 T00061006
KBWI 162354Z 06017G26KT 5SM -FZRA BR OVC008 M01/M02 A2978 RMK AO2 PK WND 05029/2341 SLP086 FZRAB40SNE40PLB30E40 P0007 60024 I1003 I6003 T10061022 11006 21044 58081
KBWI 162346Z COR 06018G29KT 6SM -FZRA BR OVC008 M01/M02 A2979 RMK AO2 PK WND 05029/2341 PRESFR FZRAB40SNE40PLB30E40 P0006 I1001 T10061022
KBWI 162336Z 06017G25KT 3SM -PLSN BR OVC008 M01/M02 A2980 RMK AO2 PK WND 04028/2301 PRESFR PLB30 P0006 I1000 T10061022
KBWI 162254Z 06016G23KT 1/2SM R10/P6000FT SN FZFG OVC008 M02/M03 A2987 RMK AO2 PRESFR SLP118 SNINCR 1/2 P0008 T10171033
KBWI 162154Z 05013G20KT 1/4SM R10/3500V4000FT SN FZFG BKN008 OVC014 M03/M04 A2995 RMK AO2 SLP144 SNINCR 1/1 P0006 T10281039
KBWI 162054Z 05008KT 1/2SM R10/4000V5000FT -SN FZFG VV012 M03/M04 A3002 RMK AO2 SLP168 P0003 60003 T10281044 56048
KBWI 162046Z 05008KT 1/2SM R10/4000V5000FT -SN FZFG VV013 M03/M05 A3002 RMK AO2 PRESFR P0002 T10281050
KBWI 162031Z 04008KT 3/4SM R10/5500VP6000FT -SN VV017 M03/M06 A3004 RMK AO2 P0001 T10281056
KBWI 162003Z 05008KT 1 1/2SM -SN OVC028 M03/M07 A3006 RMK AO2 P0000 T10281067
KBWI 161954Z 06010KT 2 1/2SM -SN BKN035 OVC048 M03/M08 A3006 RMK AO2 SNB20 SLP182 P0000 T10281078
KBWI 161946Z 07010KT 2 1/2SM -SN BKN035 OVC050 M03/M08 A3007 RMK AO2 SNB20 P0000 T10281078
KBWI 161922Z 05008KT 9SM -SN SCT035 OVC055 M03/M09 A3008 RMK AO2 SNB20 P0000 T10281094
KBWI 161854Z 05009KT 10SM FEW024 SCT060 OVC075 M03/M10 A3012 RMK AO2 SLP201 T10331100
KBWI 161754Z 04011KT 10SM FEW027 BKN090 OVC200 M04/M12 A3017 RMK AO2 SLP217 T10441117 11039 21094 58056
KBWI 161727Z 03009KT 10SM SCT028 BKN085 BKN120 OVC200 M05/M13 A3021 RMK AO2 PRESFR T10501128
KBWI 161654Z 03006KT 10SM BKN025 BKN095 BKN120 OVC200 M06/M14 A3026 RMK AO2 SLP250 T10561139
KBWI 161628Z 05007KT 10SM BKN025 BKN095 BKN120 OVC200 M06/M14 A3029 RMK AO2 T10561139
KBWI 161554Z 06006KT 10SM SCT090 SCT120 OVC200 M07/M14 A3031 RMK AO2 SLP265 T10671139